Aviation Digital Data Service (ADDS)

Output produced by METARs form (1047 UTC 19 February 2019)
found at http://www.aviationweather.gov/metar/data/
 
METAR text: MMTG 190603Z RTD 00000KT 7SM SKC 22/19 A2999 RMK SLP105 52005 950 HZY
Conditions at: MMTG (TUXTLA GUTIERREZ, MX) observed 0603 UTC 19 February 2019
Temperature: 22.0°C (72°F)
Dewpoint: 19.0°C (66°F) [RH = 83%]
Pressure (altimeter): 29.99 inches Hg (1015.7 mb)
[Sea-level pressure: 1010.5 mb]
Winds: calm
Visibility: 7 miles (11 km)
Ceiling: at least 12,000 feet AGL
Clouds: clear skies
Weather: no significant weather observed at this time

METAR text: MMTG 190448Z 00000KT 7SM SKC 24/20 A2999 RMK HZY
Conditions at: MMTG (TUXTLA GUTIERREZ, MX) observed 0448 UTC 19 February 2019
Temperature: 24.0°C (75°F)
Dewpoint: 20.0°C (68°F) [RH = 78%]
Pressure (altimeter): 29.99 inches Hg (1015.7 mb)
Winds: calm
Visibility: 7 miles (11 km)
Ceiling: at least 12,000 feet AGL
Clouds: clear skies
Weather: no significant weather observed at this time

METAR text: MMTG 190347Z 31008KT 8SM SKC 25/20 A2998 RMK HZY
Conditions at: MMTG (TUXTLA GUTIERREZ, MX) observed 0347 UTC 19 February 2019
Temperature: 25.0°C (77°F)
Dewpoint: 20.0°C (68°F) [RH = 74%]
Pressure (altimeter): 29.98 inches Hg (1015.3 mb)
Winds: from the NW (310 degrees) at 9 MPH (8 knots; 4.1 m/s)
Visibility: 8 miles (13 km)
Ceiling: at least 12,000 feet AGL
Clouds: clear skies
Weather: no significant weather observed at this time

METAR text: MMTG 190250Z 31009KT 8SM SKC 26/20 A2997 RMK SLP116 51036 913
Conditions at: MMTG (TUXTLA GUTIERREZ, MX) observed 0250 UTC 19 February 2019
Temperature: 26.0°C (79°F)
Dewpoint: 20.0°C (68°F) [RH = 70%]
Pressure (altimeter): 29.97 inches Hg (1015.0 mb)
[Sea-level pressure: 1011.6 mb]
Winds: from the NW (310 degrees) at 10 MPH (9 knots; 4.6 m/s)
Visibility: 8 miles (13 km)
Ceiling: at least 12,000 feet AGL
Clouds: clear skies
Weather: no significant weather observed at this time

METAR text: MMTG 190142Z 30013KT 10SM SKC 27/20 A2993
Conditions at: MMTG (TUXTLA GUTIERREZ, MX) observed 0142 UTC 19 February 2019
Temperature: 27.0°C (81°F)
Dewpoint: 20.0°C (68°F) [RH = 66%]
Pressure (altimeter): 29.93 inches Hg (1013.6 mb)
Winds: from the WNW (300 degrees) at 15 MPH (13 knots; 6.7 m/s)
Visibility: 10 or more miles (16+ km)
Ceiling: at least 12,000 feet AGL
Clouds: clear skies
Weather: no significant weather observed at this time

METAR text: MMTG 190041Z 31013KT 10SM SKC 28/19 A2989
Conditions at: MMTG (TUXTLA GUTIERREZ, MX) observed 0041 UTC 19 February 2019
Temperature: 28.0°C (82°F)
Dewpoint: 19.0°C (66°F) [RH = 58%]
Pressure (altimeter): 29.89 inches Hg (1012.3 mb)
Winds: from the NW (310 degrees) at 15 MPH (13 knots; 6.7 m/s)
Visibility: 10 or more miles (16+ km)
Ceiling: at least 12,000 feet AGL
Clouds: clear skies
Weather: no significant weather observed at this time

METAR text: MMTG 182347Z 32014KT 10SM SKC 31/19 A2985 RMK SLP079 52003 905
Conditions at: MMTG (TUXTLA GUTIERREZ, MX) observed 2347 UTC 18 February 2019
Temperature: 31.0°C (88°F)
Dewpoint: 19.0°C (66°F) [RH = 49%]
Pressure (altimeter): 29.85 inches Hg (1010.9 mb)
[Sea-level pressure: 1007.9 mb]
Winds: from the NW (320 degrees) at 16 MPH (14 knots; 7.2 m/s)
Visibility: 10 or more miles (16+ km)
Ceiling: at least 12,000 feet AGL
Clouds: clear skies
Weather: no significant weather observed at this time

METAR text: MMTG 182245Z 31016KT 10SM SKC 35/16 A2982
Conditions at: MMTG (TUXTLA GUTIERREZ, MX) observed 2245 UTC 18 February 2019
Temperature: 35.0°C (95°F)
Dewpoint: 16.0°C (61°F) [RH = 32%]
Pressure (altimeter): 29.82 inches Hg (1009.9 mb)
Winds: from the NW (310 degrees) at 18 MPH (16 knots; 8.2 m/s)
Visibility: 10 or more miles (16+ km)
Ceiling: at least 12,000 feet AGL
Clouds: clear skies
Weather: no significant weather observed at this time

METAR text: MMTG 182140Z 09004KT 8SM SKC 36/11 A2983 RMK HZY / FU DSTNT W NW
Conditions at: MMTG (TUXTLA GUTIERREZ, MX) observed 2140 UTC 18 February 2019
Temperature: 36.0°C (97°F)
Dewpoint: 11.0°C (52°F) [RH = 22%]
Pressure (altimeter): 29.83 inches Hg (1010.2 mb)
Winds: from the E (90 degrees) at 5 MPH (4 knots; 2.1 m/s)
Visibility: 8 miles (13 km)
Ceiling: at least 12,000 feet AGL
Clouds: clear skies
Weather: no significant weather observed at this time

METAR text: MMTG 182047Z 28005KT 8SM SKC 35/10 A2984 RMK SLP074 56040 906 FU HZ
Conditions at: MMTG (TUXTLA GUTIERREZ, MX) observed 2047 UTC 18 February 2019
Temperature: 35.0°C (95°F)
Dewpoint: 10.0°C (50°F) [RH = 22%]
Pressure (altimeter): 29.84 inches Hg (1010.6 mb)
[Sea-level pressure: 1007.4 mb]
Winds: from the W (280 degrees) at 6 MPH (5 knots; 2.6 m/s)
Visibility: 8 miles (13 km)
Ceiling: at least 12,000 feet AGL
Clouds: clear skies
Weather: no significant weather observed at this time

METAR text: MMTG 181940Z 36006KT 8SM SKC 34/12 A2989 RMK FU W
Conditions at: MMTG (TUXTLA GUTIERREZ, MX) observed 1940 UTC 18 February 2019
Temperature: 34.0°C (93°F)
Dewpoint: 12.0°C (54°F) [RH = 26%]
Pressure (altimeter): 29.89 inches Hg (1012.3 mb)
Winds: from the N (360 degrees) at 7 MPH (6 knots; 3.1 m/s)
Visibility: 8 miles (13 km)
Ceiling: at least 12,000 feet AGL
Clouds: clear skies
Weather: no significant weather observed at this time

METAR text: MMTG 181840Z 05005KT 8SM SKC 32/13 A2992
Conditions at: MMTG (TUXTLA GUTIERREZ, MX) observed 1840 UTC 18 February 2019
Temperature: 32.0°C (90°F)
Dewpoint: 13.0°C (55°F) [RH = 32%]
Pressure (altimeter): 29.92 inches Hg (1013.3 mb)
Winds: from the NE (50 degrees) at 6 MPH (5 knots; 2.6 m/s)
Visibility: 8 miles (13 km)
Ceiling: at least 12,000 feet AGL
Clouds: clear skies
Weather: no significant weather observed at this time

METAR text: MMTG 181742Z 33005KT 8SM SKC 30/14 A2997 RMK SLP111 57016 908
Conditions at: MMTG (TUXTLA GUTIERREZ, MX) observed 1742 UTC 18 February 2019
Temperature: 30.0°C (86°F)
Dewpoint: 14.0°C (57°F) [RH = 38%]
Pressure (altimeter): 29.97 inches Hg (1015.0 mb)
[Sea-level pressure: 1011.1 mb]
Winds: from the NNW (330 degrees) at 6 MPH (5 knots; 2.6 m/s)
Visibility: 8 miles (13 km)
Ceiling: at least 12,000 feet AGL
Clouds: clear skies
Weather: no significant weather observed at this time

METAR text: MMTG 181642Z 00000KT 8SM SKC 29/15 A3001
Conditions at: MMTG (TUXTLA GUTIERREZ, MX) observed 1642 UTC 18 February 2019
Temperature: 29.0°C (84°F)
Dewpoint: 15.0°C (59°F) [RH = 43%]
Pressure (altimeter): 30.01 inches Hg (1016.3 mb)
Winds: calm
Visibility: 8 miles (13 km)
Ceiling: at least 12,000 feet AGL
Clouds: clear skies
Weather: no significant weather observed at this time

METAR text: MMTG 181540Z 00000KT 8SM SKC 25/15 A3003
Conditions at: MMTG (TUXTLA GUTIERREZ, MX) observed 1540 UTC 18 February 2019
Temperature: 25.0°C (77°F)
Dewpoint: 15.0°C (59°F) [RH = 54%]
Pressure (altimeter): 30.03 inches Hg (1017.0 mb)
Winds: calm
Visibility: 8 miles (13 km)
Ceiling: at least 12,000 feet AGL
Clouds: clear skies
Weather: no significant weather observed at this time

METAR text: MMTG 181443Z 00000KT 8SM SKC 23/16 A3003 RMK SLP132 52019 909
Conditions at: MMTG (TUXTLA GUTIERREZ, MX) observed 1443 UTC 18 February 2019
Temperature: 23.0°C (73°F)
Dewpoint: 16.0°C (61°F) [RH = 65%]
Pressure (altimeter): 30.03 inches Hg (1017.0 mb)
[Sea-level pressure: 1013.2 mb]
Winds: calm
Visibility: 8 miles (13 km)
Ceiling: at least 12,000 feet AGL
Clouds: clear skies
Weather: no significant weather observed at this time

METAR text: MMTG 181341Z 10003KT 8SM SKC 19/14 A3000 RMK HZY
Conditions at: MMTG (TUXTLA GUTIERREZ, MX) observed 1341 UTC 18 February 2019
Temperature: 19.0°C (66°F)
Dewpoint: 14.0°C (57°F) [RH = 73%]
Pressure (altimeter): 30.00 inches Hg (1016.0 mb)
Winds: from the E (100 degrees) at 3 MPH (3 knots; 1.5 m/s)
Visibility: 8 miles (13 km)
Ceiling: at least 12,000 feet AGL
Clouds: clear skies
Weather: no significant weather observed at this time

METAR text: MMTG 181240Z 27005KT 7SM SKC 14/12 A2998 RMK HZY
Conditions at: MMTG (TUXTLA GUTIERREZ, MX) observed 1240 UTC 18 February 2019
Temperature: 14.0°C (57°F)
Dewpoint: 12.0°C (54°F) [RH = 88%]
Pressure (altimeter): 29.98 inches Hg (1015.3 mb)
Winds: from the W (270 degrees) at 6 MPH (5 knots; 2.6 m/s)
Visibility: 7 miles (11 km)
Ceiling: at least 12,000 feet AGL
Clouds: clear skies
Weather: no significant weather observed at this time

METAR text: MMTG 181140Z 19004KT 6SM SKC 14/12 A2996 RMK SLP116 5//// 915 HZY RTS
Conditions at: MMTG (TUXTLA GUTIERREZ, MX) observed 1140 UTC 18 February 2019
Temperature: 14.0°C (57°F)
Dewpoint: 12.0°C (54°F) [RH = 88%]
Pressure (altimeter): 29.96 inches Hg (1014.6 mb)
[Sea-level pressure: 1011.6 mb]
Winds: from the S (190 degrees) at 5 MPH (4 knots; 2.1 m/s)
Visibility: 6 miles (10 km)
Ceiling: at least 12,000 feet AGL
Clouds: clear skies
Weather: no significant weather observed at this time

METAR text: MMTG 180351Z 20004KT 10SM SKC 24/14 A2994
Conditions at: MMTG (TUXTLA GUTIERREZ, MX) observed 0351 UTC 18 February 2019
Temperature: 24.0°C (75°F)
Dewpoint: 14.0°C (57°F) [RH = 54%]
Pressure (altimeter): 29.94 inches Hg (1014.0 mb)
Winds: from the SSW (200 degrees) at 5 MPH (4 knots; 2.1 m/s)
Visibility: 10 or more miles (16+ km)
Ceiling: at least 12,000 feet AGL
Clouds: clear skies
Weather: no significant weather observed at this time

METAR text: MMTG 180246Z 00000KT 10SM FEW300 27/14 A2993 RMK SLP100 51028 916 8/002
Conditions at: MMTG (TUXTLA GUTIERREZ, MX) observed 0246 UTC 18 February 2019
Temperature: 27.0°C (81°F)
Dewpoint: 14.0°C (57°F) [RH = 45%]
Pressure (altimeter): 29.93 inches Hg (1013.6 mb)
[Sea-level pressure: 1010.0 mb]
Winds: calm
Visibility: 10 or more miles (16+ km)
Ceiling: at least 12,000 feet AGL
Clouds: few clouds at 30000 feet AGL
Weather: no significant weather observed at this time

METAR text: MMTG 180141Z 06007KT 10SM SKC 27/15 A2989 RMK ISOL CI
Conditions at: MMTG (TUXTLA GUTIERREZ, MX) observed 0141 UTC 18 February 2019
Temperature: 27.0°C (81°F)
Dewpoint: 15.0°C (59°F) [RH = 48%]
Pressure (altimeter): 29.89 inches Hg (1012.3 mb)
Winds: from the ENE (60 degrees) at 8 MPH (7 knots; 3.6 m/s)
Visibility: 10 or more miles (16+ km)
Ceiling: at least 12,000 feet AGL
Clouds: clear skies
Weather: no significant weather observed at this time

METAR text: MMTG 180048Z 20006KT 10SM SKC 28/15 A2986
Conditions at: MMTG (TUXTLA GUTIERREZ, MX) observed 0048 UTC 18 February 2019
Temperature: 28.0°C (82°F)
Dewpoint: 15.0°C (59°F) [RH = 45%]
Pressure (altimeter): 29.86 inches Hg (1011.3 mb)
Winds: from the SSW (200 degrees) at 7 MPH (6 knots; 3.1 m/s)
Visibility: 10 or more miles (16+ km)
Ceiling: at least 12,000 feet AGL
Clouds: clear skies
Weather: no significant weather observed at this time

METAR text: MMTG 172352Z 16006G16KT 10SM SKC 30/15 A2984 RMK SLP074 52004 927
Conditions at: MMTG (TUXTLA GUTIERREZ, MX) observed 2352 UTC 17 February 2019
Temperature: 30.0°C (86°F)
Dewpoint: 15.0°C (59°F) [RH = 40%]
Pressure (altimeter): 29.84 inches Hg (1010.6 mb)
[Sea-level pressure: 1007.4 mb]
Winds: from the SSE (160 degrees) at 7 MPH (6 knots; 3.1 m/s)
gusting to 18 MPH (16 knots; 8.2 m/s)
Visibility: 10 or more miles (16+ km)
Ceiling: at least 12,000 feet AGL
Clouds: clear skies
Weather: no significant weather observed at this time

Forecast for: MMTG (TUXTLA GUTIERREZ, MX)
Text: TAF MMTG 190427Z 1906/2006 31006KT P6SM SKC
Forecast period: 0600 to 1800 UTC 19 February 2019
Forecast type: FROM: standard forecast or significant change
Winds: from the NW (310 degrees) at 7 MPH (6 knots; 3.1 m/s)
Visibility: 6 or more miles 10+ km)
Clouds: clear skies
Weather: no significant weather forecast for this period
Text: FM191800 21012KT P6SM SCT030 SCT250
Forecast period: 1800 UTC 19 February 2019 to 0500 UTC 20 February 2019
Forecast type: FROM: standard forecast or significant change
Winds: from the SSW (210 degrees) at 14 MPH (12 knots; 6.2 m/s)
Visibility: 6 or more miles 10+ km)
Ceiling: at least 12,000 feet AGL
Clouds: scattered clouds at 3000 feet AGL
scattered clouds at 25000 feet AGL
Weather: no significant weather forecast for this period
Text: FM200500 30005KT P6SM SKC
Forecast period: 0500 to 0600 UTC 20 February 2019
Forecast type: FROM: standard forecast or significant change
Winds: from the WNW (300 degrees) at 6 MPH (5 knots; 2.6 m/s)
Visibility: 6 or more miles 10+ km)
Clouds: clear skies
Weather: no significant weather forecast for this period